createdAt,value
2022-09-24T00:02:27.365Z,6.47
2022-09-24T00:04:58.162Z,7.22
2022-09-24T00:07:26.027Z,6.57
2022-09-24T00:09:54.071Z,6.62
2022-09-24T00:12:22.318Z,6.47
2022-09-24T00:14:56.808Z,6.87
2022-09-24T00:17:24.998Z,6.12
2022-09-24T00:19:52.992Z,6.55
2022-09-24T00:22:23.211Z,7.78
2022-09-24T00:25:09.964Z,6.40
2022-09-24T00:27:37.968Z,6.97
2022-09-24T00:30:07.006Z,6.18
2022-09-24T00:32:35.117Z,6.57
2022-09-24T00:35:07.484Z,5.60
2022-09-24T00:37:41.441Z,6.15
2022-09-24T00:40:10.031Z,6.70
2022-09-24T00:42:38.262Z,6.70
2022-09-24T00:45:07.034Z,5.80
2022-09-24T00:47:39.447Z,5.97
2022-09-24T00:50:32.704Z,6.25
2022-09-24T00:53:00.573Z,6.62
2022-09-24T00:55:29.343Z,6.47
2022-09-24T00:57:59.574Z,6.12
2022-09-24T01:00:31.341Z,6.78
2022-09-24T01:03:06.505Z,5.78
2022-09-24T01:05:37.253Z,6.15
2022-09-24T01:08:12.939Z,6.05
2022-09-24T01:10:59.133Z,6.60
2022-09-24T01:13:55.963Z,6.20
2022-09-24T01:16:40.346Z,6.67
2022-09-24T01:19:15.188Z,6.10
2022-09-24T01:21:48.111Z,7.62
2022-09-24T01:24:42.696Z,6.20
2022-09-24T01:27:33.505Z,6.57
2022-09-24T01:30:09.406Z,5.62
2022-09-24T01:32:58.827Z,6.22
2022-09-24T01:35:32.719Z,6.43
2022-09-24T01:38:03.501Z,6.78
2022-09-24T01:40:32.415Z,5.72
2022-09-24T01:43:02.836Z,5.85
2022-09-24T01:45:33.866Z,5.82
2022-09-24T01:48:13.365Z,8.30
2022-09-24T01:50:46.212Z,11.60
2022-09-24T01:53:24.499Z,19.98
2022-09-24T01:55:59.817Z,19.83
2022-09-24T01:58:39.305Z,12.85
2022-09-24T02:01:11.293Z,10.43
2022-09-24T02:03:44.919Z,10.98
2022-09-24T02:06:16.434Z,8.77
2022-09-24T02:08:47.696Z,15.52
2022-09-24T02:11:18.409Z,28.10
2022-09-24T02:14:09.904Z,29.77
2022-09-24T02:16:49.465Z,26.23
2022-09-24T02:19:20.391Z,20.17
2022-09-24T02:21:48.840Z,12.85
2022-09-24T02:24:21.281Z,16.20
2022-09-24T02:26:49.192Z,11.48
2022-09-24T02:29:18.710Z,12.85
2022-09-24T02:31:51.368Z,18.80
2022-09-24T02:34:25.732Z,23.15
2022-09-24T02:37:14.497Z,23.65
2022-09-24T02:39:51.486Z,22.13
2022-09-24T02:42:22.774Z,16.92
2022-09-24T02:44:52.444Z,17.00
2022-09-24T02:47:20.284Z,18.27
2022-09-24T02:49:50.631Z,21.20
2022-09-24T02:52:19.311Z,21.80
2022-09-24T02:54:56.545Z,20.07
2022-09-24T02:57:24.861Z,19.17
2022-09-24T02:59:52.776Z,18.87
2022-09-24T03:02:21.593Z,20.40
2022-09-24T03:04:50.505Z,18.27
2022-09-24T03:07:18.431Z,15.68
2022-09-24T03:09:51.323Z,14.80
2022-09-24T03:12:19.710Z,16.80
2022-09-24T03:14:47.557Z,14.77
2022-09-24T03:17:15.325Z,15.23
2022-09-24T03:19:43.510Z,13.18
2022-09-24T03:22:11.278Z,13.48
2022-09-24T03:24:39.041Z,12.70
2022-09-24T03:27:07.001Z,11.52
2022-09-24T03:29:56.245Z,12.45
2022-09-24T03:32:24.892Z,9.70
2022-09-24T03:34:52.829Z,11.65
2022-09-24T03:37:20.658Z,11.38
2022-09-24T03:39:48.886Z,11.45
2022-09-24T03:42:16.736Z,11.15
2022-09-24T03:44:44.839Z,10.98
2022-09-24T03:47:13.086Z,11.20
2022-09-24T03:49:40.756Z,12.02
2022-09-24T03:52:08.685Z,11.77
2022-09-24T03:54:37.609Z,10.85
2022-09-24T03:57:15.186Z,11.45
2022-09-24T03:59:46.046Z,11.73
2022-09-24T04:02:14.108Z,12.10
2022-09-24T04:04:47.694Z,12.48
2022-09-24T04:07:15.800Z,10.80
2022-09-24T04:09:44.428Z,13.13
2022-09-24T04:12:13.577Z,11.65
2022-09-24T04:14:41.475Z,10.98
2022-09-24T04:17:10.694Z,10.95
2022-09-24T04:19:41.860Z,11.40
2022-09-24T04:22:12.692Z,12.77
2022-09-24T04:24:41.255Z,11.20
2022-09-24T04:27:09.287Z,9.57
2022-09-24T04:29:37.942Z,10.00
2022-09-24T04:32:05.911Z,11.57
2022-09-24T04:34:36.298Z,11.88
2022-09-24T04:37:05.835Z,13.40
2022-09-24T04:39:33.328Z,14.68
2022-09-24T04:42:00.966Z,14.00
2022-09-24T04:44:30.505Z,15.02
2022-09-24T04:47:02.603Z,14.05
2022-09-24T04:49:34.474Z,13.65
2022-09-24T04:52:05.451Z,12.37
2022-09-24T04:54:33.930Z,11.52
2022-09-24T04:57:01.922Z,12.93
2022-09-24T04:59:29.696Z,12.10
2022-09-24T05:01:57.829Z,13.98
2022-09-24T05:04:31.352Z,14.10
2022-09-24T05:06:59.504Z,14.45
2022-09-24T05:09:36.803Z,13.98
2022-09-24T05:12:05.911Z,13.73
2022-09-24T05:14:34.167Z,14.23
2022-09-24T05:17:04.448Z,15.35
2022-09-24T05:19:32.870Z,17.75
2022-09-24T05:22:01.120Z,18.37
2022-09-24T05:24:29.395Z,17.35
2022-09-24T05:27:09.870Z,15.82
2022-09-24T05:29:43.454Z,15.00
2022-09-24T05:32:15.535Z,17.92
2022-09-24T05:34:44.276Z,19.98
2022-09-24T05:37:14.167Z,16.55
2022-09-24T05:39:41.976Z,17.30
2022-09-24T05:42:14.564Z,15.77
2022-09-24T05:44:49.827Z,15.63
2022-09-24T05:47:19.878Z,17.02
2022-09-24T05:49:53.293Z,15.57
2022-09-24T05:52:21.116Z,16.15
2022-09-24T05:54:49.366Z,15.20
2022-09-24T05:57:17.682Z,16.23
2022-09-24T05:59:45.758Z,16.25
2022-09-24T06:02:14.802Z,16.90
2022-09-24T06:04:43.533Z,16.77
2022-09-24T06:07:11.698Z,16.92
2022-09-24T06:09:39.645Z,18.17
2022-09-24T06:12:11.237Z,17.00
2022-09-24T06:14:39.418Z,17.03
2022-09-24T06:17:07.518Z,18.67
2022-09-24T06:19:36.051Z,18.45
2022-09-24T06:22:03.854Z,16.85
2022-09-24T06:24:34.774Z,16.83
2022-09-24T06:27:02.644Z,19.48
2022-09-24T06:29:34.125Z,17.12
2022-09-24T06:32:04.511Z,16.55
2022-09-24T06:34:36.444Z,17.23
2022-09-24T06:37:05.473Z,16.87
2022-09-24T06:39:33.643Z,16.90
2022-09-24T06:42:01.836Z,16.25
2022-09-24T06:44:35.534Z,17.55
2022-09-24T06:47:03.778Z,16.58
2022-09-24T06:49:34.197Z,17.77
2022-09-24T06:52:02.710Z,16.75
2022-09-24T06:54:30.450Z,16.48
2022-09-24T06:56:58.536Z,16.93
2022-09-24T06:59:26.265Z,19.10
2022-09-24T07:01:54.701Z,17.45
2022-09-24T07:04:23.595Z,17.33
2022-09-24T07:07:10.170Z,20.58
2022-09-24T07:09:41.773Z,17.10
2022-09-24T07:12:09.642Z,17.02
2022-09-24T07:14:37.378Z,16.17
2022-09-24T07:17:07.194Z,18.02
2022-09-24T07:19:35.604Z,19.40
2022-09-24T07:22:09.006Z,18.23
2022-09-24T07:24:42.958Z,18.37
2022-09-24T07:27:12.783Z,18.87
2022-09-24T07:29:52.762Z,18.23
2022-09-24T07:32:20.791Z,18.92
2022-09-24T07:34:56.551Z,19.90
2022-09-24T07:37:28.709Z,18.87
2022-09-24T07:40:03.921Z,20.80
2022-09-24T07:42:54.809Z,17.42
2022-09-24T07:45:29.963Z,19.17
2022-09-24T07:48:02.165Z,19.80
2022-09-24T07:50:32.556Z,20.83
2022-09-24T07:53:00.795Z,18.35
2022-09-24T07:55:41.345Z,18.37
2022-09-24T07:58:14.036Z,18.25
2022-09-24T08:00:43.373Z,17.92
2022-09-24T08:03:15.163Z,17.90
2022-09-24T08:05:49.599Z,17.77
2022-09-24T08:08:25.889Z,22.80
2022-09-24T08:11:04.165Z,22.08
2022-09-24T08:13:39.503Z,18.55
2022-09-24T08:16:27.236Z,21.02
2022-09-24T08:18:57.453Z,21.37
2022-09-24T08:21:34.753Z,19.08
2022-09-24T08:24:33.269Z,21.08
2022-09-24T08:27:03.751Z,19.27
2022-09-24T08:29:42.220Z,18.35
2022-09-24T08:32:17.823Z,16.77
2022-09-24T08:35:03.985Z,17.83
2022-09-24T08:37:33.432Z,14.75
2022-09-24T08:40:08.390Z,15.45
2022-09-24T08:42:39.755Z,13.98
2022-09-24T08:45:31.820Z,15.30
2022-09-24T08:48:05.819Z,14.65
2022-09-24T08:50:40.537Z,15.48
2022-09-24T08:53:24.939Z,13.32
2022-09-24T08:56:02.474Z,17.48
2022-09-24T08:58:44.318Z,15.70
2022-09-24T09:01:34.836Z,14.70
2022-09-24T09:04:24.058Z,15.23
2022-09-24T09:07:07.199Z,15.73
2022-09-24T09:10:36.045Z,15.25
2022-09-24T09:13:25.970Z,14.70
2022-09-24T09:16:29.557Z,16.27
2022-09-24T09:19:07.047Z,16.73
2022-09-24T09:21:59.621Z,15.93
2022-09-24T09:24:50.557Z,16.58
2022-09-24T09:27:28.028Z,15.30
2022-09-24T09:30:14.155Z,16.02
2022-09-24T09:32:56.669Z,13.80
2022-09-24T09:35:54.940Z,13.50
2022-09-24T09:38:53.908Z,11.23
2022-09-24T09:41:50.415Z,11.10
2022-09-24T09:44:29.260Z,14.53
2022-09-24T09:47:49.182Z,12.57
2022-09-24T09:50:41.081Z,11.85
2022-09-24T09:53:43.826Z,10.98
2022-09-24T09:56:19.498Z,10.45
2022-09-24T09:58:56.780Z,12.20
2022-09-24T10:01:33.332Z,12.57
2022-09-24T10:04:05.850Z,9.23
2022-09-24T10:06:44.417Z,8.88
2022-09-24T10:09:21.148Z,8.77
2022-09-24T10:11:49.337Z,9.65
2022-09-24T10:14:22.280Z,8.63
2022-09-24T10:16:54.997Z,9.27
2022-09-24T10:19:28.178Z,8.83
2022-09-24T10:22:00.280Z,7.22
2022-09-24T10:24:35.616Z,10.27
2022-09-24T10:27:15.167Z,8.45
2022-09-24T10:30:02.903Z,7.10
2022-09-24T10:32:30.983Z,6.73
2022-09-24T10:35:15.519Z,6.80
2022-09-24T10:37:54.548Z,5.62
2022-09-24T10:40:31.564Z,6.18
2022-09-24T10:43:06.694Z,7.00
2022-09-24T10:45:59.748Z,7.18
2022-09-24T10:48:34.163Z,7.00
2022-09-24T10:51:26.574Z,6.12
2022-09-24T10:54:18.783Z,5.53
2022-09-24T10:56:55.874Z,5.47
2022-09-24T10:59:26.944Z,6.50
2022-09-24T11:02:16.584Z,5.40
2022-09-24T11:05:18.625Z,5.90
2022-09-24T11:08:19.442Z,6.12
2022-09-24T11:10:53.453Z,5.18
2022-09-24T11:13:30.964Z,7.30
2022-09-24T11:16:15.005Z,6.67
2022-09-24T11:19:05.310Z,5.35
2022-09-24T11:22:14.639Z,4.62
2022-09-24T11:24:49.017Z,7.10
2022-09-24T11:27:35.516Z,6.25
2022-09-24T11:30:14.497Z,6.35
2022-09-24T11:33:10.311Z,5.70
2022-09-24T11:36:05.806Z,5.25
2022-09-24T11:38:51.969Z,4.90
2022-09-24T11:41:56.874Z,4.93
2022-09-24T11:45:01.793Z,5.97
2022-09-24T11:47:45.711Z,5.28
2022-09-24T11:50:24.803Z,6.28
2022-09-24T11:53:09.204Z,4.60
2022-09-24T11:55:44.441Z,5.10
2022-09-24T11:58:14.580Z,4.50
2022-09-24T12:00:50.594Z,4.85
2022-09-24T12:03:58.418Z,5.78
2022-09-24T12:06:54.402Z,5.65
2022-09-24T12:09:25.517Z,4.35
2022-09-24T12:12:16.301Z,5.00
2022-09-24T12:14:49.394Z,5.07
2022-09-24T12:17:22.489Z,4.75
2022-09-24T12:20:02.760Z,5.43
2022-09-24T12:22:31.667Z,5.22
2022-09-24T12:25:00.752Z,5.28
2022-09-24T12:27:36.678Z,5.53
2022-09-24T12:30:29.432Z,4.40
2022-09-24T12:33:23.772Z,5.28
2022-09-24T12:36:31.740Z,4.95
2022-09-24T12:39:05.781Z,4.85
2022-09-24T12:41:46.976Z,5.82
2022-09-24T12:44:26.695Z,5.22
2022-09-24T12:46:58.841Z,4.18
2022-09-24T12:49:39.583Z,5.00
2022-09-24T12:52:32.689Z,5.20
2022-09-24T12:55:06.343Z,5.70
2022-09-24T12:57:42.657Z,6.87
2022-09-24T13:00:32.661Z,5.87
2022-09-24T13:03:01.667Z,5.22
2022-09-24T13:05:36.558Z,5.20
2022-09-24T13:08:20.177Z,5.47
2022-09-24T13:11:05.835Z,5.57
2022-09-24T13:13:45.109Z,5.78
2022-09-24T13:16:24.821Z,5.82
2022-09-24T13:19:00.807Z,4.40
2022-09-24T13:21:32.689Z,5.93
2022-09-24T13:24:24.497Z,5.50
2022-09-24T13:27:26.099Z,7.07
2022-09-24T13:30:06.136Z,7.07
2022-09-24T13:32:37.535Z,4.87
2022-09-24T13:35:19.499Z,5.73
2022-09-24T13:38:09.134Z,4.57
2022-09-24T13:40:41.063Z,4.30
2022-09-24T13:43:21.015Z,4.80
2022-09-24T13:45:49.662Z,5.25
2022-09-24T13:48:38.606Z,5.18
2022-09-24T13:51:13.134Z,6.65
2022-09-24T13:53:48.660Z,5.22
2022-09-24T13:56:21.388Z,6.37
2022-09-24T13:58:51.458Z,5.32
2022-09-24T14:01:24.707Z,4.75
2022-09-24T14:03:58.932Z,4.25
2022-09-24T14:06:36.717Z,5.07
2022-09-24T14:09:25.159Z,6.07
2022-09-24T14:12:15.359Z,5.00
2022-09-24T14:14:51.707Z,6.72
2022-09-24T14:17:22.168Z,5.70
2022-09-24T14:20:01.338Z,5.25
2022-09-24T14:22:37.079Z,6.72
2022-09-24T14:25:20.772Z,5.97
2022-09-24T14:27:56.234Z,5.63
2022-09-24T14:30:29.375Z,6.65
2022-09-24T14:33:08.430Z,6.45
2022-09-24T14:35:51.158Z,9.05
2022-09-24T14:38:36.931Z,7.82
2022-09-24T14:41:19.955Z,6.82
2022-09-24T14:44:00.871Z,6.10
2022-09-24T14:46:35.660Z,6.10
2022-09-24T14:49:23.715Z,7.18
2022-09-24T14:52:04.400Z,7.23
2022-09-24T14:54:45.636Z,7.27
2022-09-24T14:57:19.786Z,6.75
2022-09-24T14:59:47.965Z,5.95
2022-09-24T15:02:30.363Z,7.60
2022-09-24T15:05:05.606Z,5.53
2022-09-24T15:07:35.473Z,7.45
2022-09-24T15:10:05.536Z,8.20
2022-09-24T15:12:42.257Z,7.90
2022-09-24T15:15:17.504Z,5.78
2022-09-24T15:17:48.901Z,5.50
2022-09-24T15:20:19.729Z,6.30
2022-09-24T15:22:56.760Z,5.72
2022-09-24T15:25:25.400Z,5.57
2022-09-24T15:27:55.027Z,7.28
2022-09-24T15:30:25.938Z,8.27
2022-09-24T15:33:02.767Z,10.37
2022-09-24T15:35:31.213Z,6.50
2022-09-24T15:37:59.274Z,6.68
2022-09-24T15:40:30.866Z,7.82
2022-09-24T15:42:59.358Z,11.80
2022-09-24T15:45:27.076Z,8.07
2022-09-24T15:47:55.475Z,7.40
2022-09-24T15:50:24.661Z,9.07
2022-09-24T15:52:59.334Z,8.27
2022-09-24T15:55:28.699Z,7.68
2022-09-24T15:57:57.006Z,7.15
2022-09-24T16:00:25.737Z,9.40
2022-09-24T16:02:56.206Z,8.40
2022-09-24T16:05:27.705Z,9.98
2022-09-24T16:07:57.504Z,8.15
2022-09-24T16:10:25.645Z,10.25
2022-09-24T16:12:57.746Z,10.52
2022-09-24T16:15:27.888Z,8.13
2022-09-24T16:17:55.948Z,8.63
2022-09-24T16:20:25.499Z,7.35
2022-09-24T16:22:53.598Z,7.20
2022-09-24T16:25:21.375Z,6.95
2022-09-24T16:27:51.118Z,6.30
2022-09-24T16:30:20.317Z,8.95
2022-09-24T16:32:48.666Z,9.57
2022-09-24T16:35:16.735Z,7.87
2022-09-24T16:37:45.213Z,8.68
2022-09-24T16:40:16.654Z,6.90
2022-09-24T16:42:44.975Z,9.27
2022-09-24T16:45:13.280Z,8.85
2022-09-24T16:47:55.713Z,9.13
2022-09-24T16:50:24.236Z,8.48
2022-09-24T16:52:55.058Z,7.40
2022-09-24T16:55:26.388Z,9.23
2022-09-24T16:57:54.342Z,9.23
2022-09-24T17:00:22.407Z,8.88
2022-09-24T17:02:52.567Z,9.57
2022-09-24T17:05:21.283Z,7.82
2022-09-24T17:07:49.980Z,10.25
2022-09-24T17:10:18.475Z,10.00
2022-09-24T17:12:50.269Z,11.12
2022-09-24T17:15:20.880Z,11.40
2022-09-24T17:17:51.194Z,10.23
2022-09-24T17:20:26.359Z,10.02
2022-09-24T17:22:56.101Z,11.30
2022-09-24T17:25:23.859Z,11.23
2022-09-24T17:27:55.266Z,12.30
2022-09-24T17:30:25.391Z,13.45
2022-09-24T17:32:53.969Z,16.10
2022-09-24T17:35:23.068Z,19.35
2022-09-24T17:37:55.300Z,19.30
2022-09-24T17:40:24.592Z,19.87
2022-09-24T17:42:54.293Z,17.30
2022-09-24T17:45:23.059Z,20.80
2022-09-24T17:47:58.044Z,14.48
2022-09-24T17:50:26.857Z,18.62
2022-09-24T17:53:04.201Z,21.52
2022-09-24T17:55:32.488Z,19.48
2022-09-24T17:58:00.784Z,18.40
2022-09-24T18:00:31.494Z,18.08
2022-09-24T18:02:59.738Z,15.52
2022-09-24T18:05:32.539Z,18.27
2022-09-24T18:08:01.230Z,16.77
2022-09-24T18:10:41.670Z,14.90
2022-09-24T18:13:10.080Z,16.10
2022-09-24T18:15:39.021Z,19.05
2022-09-24T18:18:22.782Z,19.33
2022-09-24T18:21:11.345Z,17.87
2022-09-24T18:23:48.124Z,17.20
2022-09-24T18:26:19.748Z,17.77
2022-09-24T18:29:04.022Z,18.08
2022-09-24T18:31:45.787Z,16.85
2022-09-24T18:34:16.099Z,16.77
2022-09-24T18:36:47.788Z,14.90
2022-09-24T18:39:23.745Z,18.15
2022-09-24T18:41:56.243Z,14.10
2022-09-24T18:44:25.411Z,17.48
2022-09-24T18:47:00.628Z,14.93
2022-09-24T18:49:33.814Z,14.57
2022-09-24T18:52:09.960Z,13.55
2022-09-24T18:54:51.387Z,12.70
2022-09-24T18:57:32.927Z,11.83
2022-09-24T19:00:30.946Z,12.57
2022-09-24T19:04:00.028Z,11.60
2022-09-24T19:07:09.653Z,12.93
2022-09-24T19:09:43.599Z,12.02
2022-09-24T19:12:33.169Z,11.80
2022-09-24T19:15:14.871Z,12.52
2022-09-24T19:17:53.907Z,11.27
2022-09-24T19:20:36.582Z,11.00
2022-09-24T19:23:21.829Z,11.70
2022-09-24T19:26:12.754Z,11.25
2022-09-24T19:29:03.243Z,11.43
2022-09-24T19:31:57.945Z,11.43
2022-09-24T19:37:31.462Z,13.15
2022-09-24T19:40:04.696Z,11.32
2022-09-24T19:42:51.108Z,12.57
2022-09-24T19:45:23.052Z,12.90
2022-09-24T19:47:59.795Z,10.80
2022-09-24T19:50:37.640Z,12.37
2022-09-24T19:53:18.601Z,12.67
2022-09-24T19:55:48.442Z,12.53
2022-09-24T19:58:25.838Z,11.15
2022-09-24T20:00:55.236Z,10.33
2022-09-24T20:03:26.258Z,13.62
2022-09-24T20:06:06.195Z,10.88
2022-09-24T20:08:48.065Z,11.45
2022-09-24T20:11:32.894Z,11.40
2022-09-24T20:14:06.255Z,17.30
2022-09-24T20:16:42.654Z,13.60
2022-09-24T20:19:15.617Z,13.75
2022-09-24T20:21:43.868Z,12.45
2022-09-24T20:24:15.288Z,15.27
2022-09-24T20:27:05.025Z,15.73
2022-09-24T20:29:34.034Z,15.07
2022-09-24T20:32:05.780Z,15.93
2022-09-24T20:34:36.319Z,13.88
2022-09-24T20:37:05.917Z,12.50
2022-09-24T20:39:35.393Z,12.10
2022-09-24T20:42:04.968Z,11.87
2022-09-24T20:44:38.303Z,12.10
2022-09-24T20:47:07.394Z,11.50
2022-09-24T20:49:36.707Z,12.90
2022-09-24T20:52:11.957Z,12.40
2022-09-24T20:54:40.276Z,11.05
2022-09-24T20:57:08.290Z,12.23
2022-09-24T20:59:36.438Z,12.48
2022-09-24T21:02:07.822Z,11.32
2022-09-24T21:04:36.241Z,12.13
2022-09-24T21:07:05.075Z,13.13
2022-09-24T21:09:33.219Z,11.70
2022-09-24T21:12:03.709Z,12.50
2022-09-24T21:14:35.771Z,12.23
2022-09-24T21:17:13.289Z,12.07
2022-09-24T21:19:41.605Z,12.18
2022-09-24T21:22:09.613Z,11.68
2022-09-24T21:24:43.128Z,13.38
2022-09-24T21:27:11.612Z,11.73
2022-09-24T21:29:40.009Z,14.68
2022-09-24T21:32:11.432Z,12.13
2022-09-24T21:34:42.276Z,11.65
2022-09-24T21:37:14.821Z,13.50
2022-09-24T21:39:45.084Z,12.23
2022-09-24T21:42:12.987Z,12.18
2022-09-24T21:44:48.338Z,11.93
2022-09-24T21:47:25.565Z,11.15
2022-09-24T21:49:53.707Z,10.65
2022-09-24T21:52:21.958Z,12.25
2022-09-24T21:54:49.696Z,12.30
2022-09-24T21:57:17.539Z,11.38
2022-09-24T22:00:02.722Z,12.27
2022-09-24T22:02:33.648Z,10.82
2022-09-24T22:05:01.862Z,9.63
2022-09-24T22:07:29.673Z,10.93
2022-09-24T22:10:02.744Z,12.80
2022-09-24T22:12:32.242Z,10.82
2022-09-24T22:15:02.981Z,9.63
2022-09-24T22:17:34.521Z,12.73
2022-09-24T22:20:03.012Z,9.88
2022-09-24T22:22:31.233Z,11.48
2022-09-24T22:24:58.950Z,14.15
2022-09-24T22:27:30.092Z,10.88
2022-09-24T22:30:04.279Z,14.10
2022-09-24T22:32:43.481Z,15.20
2022-09-24T22:35:33.207Z,19.45
2022-09-24T22:38:02.777Z,18.05
2022-09-24T22:40:39.301Z,18.48
2022-09-24T22:43:09.401Z,14.55
2022-09-24T22:45:38.641Z,13.55
2022-09-24T22:48:16.065Z,14.53
2022-09-24T22:50:44.515Z,12.50
2022-09-24T22:53:14.942Z,14.27
2022-09-24T22:55:50.499Z,13.85
2022-09-24T22:58:21.809Z,14.93
2022-09-24T23:00:52.749Z,15.18
2022-09-24T23:03:24.765Z,13.38
2022-09-24T23:05:53.480Z,13.13
2022-09-24T23:08:21.585Z,14.82
2022-09-24T23:10:51.578Z,12.68
2022-09-24T23:13:19.328Z,14.10
2022-09-24T23:15:50.703Z,11.30
2022-09-24T23:18:27.797Z,15.13
2022-09-24T23:21:18.399Z,11.95
2022-09-24T23:23:56.865Z,12.32
2022-09-24T23:26:31.787Z,11.70
2022-09-24T23:29:12.291Z,12.98
2022-09-24T23:31:43.681Z,10.85
2022-09-24T23:34:19.806Z,11.20
2022-09-24T23:36:51.037Z,11.23
2022-09-24T23:39:18.823Z,13.10
2022-09-24T23:41:46.518Z,10.48
2022-09-24T23:44:14.913Z,12.10
2022-09-24T23:46:45.822Z,11.63
2022-09-24T23:49:13.997Z,11.60
2022-09-24T23:51:47.447Z,10.35
2022-09-24T23:54:20.736Z,11.23
2022-09-24T23:56:49.424Z,12.10
2022-09-24T23:59:33.483Z,10.63
